sensor_id;sensor_type;location;lat;lon;timestamp;pressure;altitude;pressure_sealevel;temperature;humidity
69879;BME280;57161;43.136;24.706;2023-02-12T00:00:09;100319.88;;;-1.95;63.85
69879;BME280;57161;43.136;24.706;2023-02-12T00:02:35;100318.75;;;-1.98;63.91
69879;BME280;57161;43.136;24.706;2023-02-12T00:05:00;100316.16;;;-1.89;63.63
69879;BME280;57161;43.136;24.706;2023-02-12T00:07:29;100314.09;;;-1.85;63.31
69879;BME280;57161;43.136;24.706;2023-02-12T00:09:54;100311.25;;;-1.81;63.14
69879;BME280;57161;43.136;24.706;2023-02-12T00:12:19;100262.97;;;-2.04;63.12
69879;BME280;57161;43.136;24.706;2023-02-12T00:14:45;100285.38;;;-1.80;63.02
69879;BME280;57161;43.136;24.706;2023-02-12T00:17:10;100311.22;;;-1.65;62.53
69879;BME280;57161;43.136;24.706;2023-02-12T00:19:36;100300.00;;;-1.70;62.49
69879;BME280;57161;43.136;24.706;2023-02-12T00:22:01;100245.84;;;-2.08;62.36
69879;BME280;57161;43.136;24.706;2023-02-12T00:24:27;100257.59;;;-2.07;62.64
69879;BME280;57161;43.136;24.706;2023-02-12T00:26:52;100312.94;;;-1.71;63.05
69879;BME280;57161;43.136;24.706;2023-02-12T00:29:18;100303.97;;;-1.71;62.75
69879;BME280;57161;43.136;24.706;2023-02-12T00:31:43;100301.50;;;-1.82;62.92
69879;BME280;57161;43.136;24.706;2023-02-12T00:34:10;100246.47;;;-2.17;62.75
69879;BME280;57161;43.136;24.706;2023-02-12T00:36:35;100267.22;;;-2.03;62.73
69879;BME280;57161;43.136;24.706;2023-02-12T00:39:01;100297.31;;;-1.87;62.82
69879;BME280;57161;43.136;24.706;2023-02-12T00:41:26;100276.03;;;-1.95;63.33
69879;BME280;57161;43.136;24.706;2023-02-12T00:43:52;100276.66;;;-2.04;63.48
69879;BME280;57161;43.136;24.706;2023-02-12T00:46:18;100270.88;;;-2.22;63.51
69879;BME280;57161;43.136;24.706;2023-02-12T00:48:43;100271.38;;;-2.11;63.62
69879;BME280;57161;43.136;24.706;2023-02-12T00:51:09;100261.97;;;-2.10;63.64
69879;BME280;57161;43.136;24.706;2023-02-12T00:53:35;100283.38;;;-2.21;64.12
69879;BME280;57161;43.136;24.706;2023-02-12T00:56:01;100289.50;;;-2.17;63.95
69879;BME280;57161;43.136;24.706;2023-02-12T00:58:26;100277.56;;;-2.23;64.57
69879;BME280;57161;43.136;24.706;2023-02-12T01:00:53;100265.09;;;-2.40;64.86
69879;BME280;57161;43.136;24.706;2023-02-12T01:03:19;100271.41;;;-2.44;65.32
69879;BME280;57161;43.136;24.706;2023-02-12T01:05:44;100227.28;;;-2.78;65.39
69879;BME280;57161;43.136;24.706;2023-02-12T01:08:15;100276.19;;;-2.48;65.50
69879;BME280;57161;43.136;24.706;2023-02-12T01:10:41;100278.44;;;-2.43;65.82
69879;BME280;57161;43.136;24.706;2023-02-12T01:13:08;100274.06;;;-2.40;65.58
69879;BME280;57161;43.136;24.706;2023-02-12T01:15:35;100275.84;;;-2.33;65.14
69879;BME280;57161;43.136;24.706;2023-02-12T01:18:00;100278.06;;;-2.28;65.21
69879;BME280;57161;43.136;24.706;2023-02-12T01:20:26;100274.81;;;-2.23;64.58
69879;BME280;57161;43.136;24.706;2023-02-12T01:22:51;100257.66;;;-2.40;64.93
69879;BME280;57161;43.136;24.706;2023-02-12T01:25:17;100273.44;;;-2.31;65.15
69879;BME280;57161;43.136;24.706;2023-02-12T01:27:42;100275.06;;;-2.34;64.84
69879;BME280;57161;43.136;24.706;2023-02-12T01:30:11;100265.66;;;-2.33;65.04
69879;BME280;57161;43.136;24.706;2023-02-12T01:32:37;100240.38;;;-2.53;65.17
69879;BME280;57161;43.136;24.706;2023-02-12T01:35:03;100271.91;;;-2.32;65.04
69879;BME280;57161;43.136;24.706;2023-02-12T01:37:28;100216.78;;;-2.80;65.69
69879;BME280;57161;43.136;24.706;2023-02-12T01:39:54;100249.53;;;-2.44;65.87
69879;BME280;57161;43.136;24.706;2023-02-12T01:42:19;100240.81;;;-2.55;66.17
69879;BME280;57161;43.136;24.706;2023-02-12T01:47:36;100226.44;;;-2.59;66.14
69879;BME280;57161;43.136;24.706;2023-02-12T01:50:01;100234.91;;;-2.53;65.92
69879;BME280;57161;43.136;24.706;2023-02-12T01:52:33;100245.22;;;-2.45;65.78
69879;BME280;57161;43.136;24.706;2023-02-12T01:55:04;100243.28;;;-2.44;65.55
69879;BME280;57161;43.136;24.706;2023-02-12T01:57:34;100246.00;;;-2.28;65.36
69879;BME280;57161;43.136;24.706;2023-02-12T02:00:03;100236.47;;;-2.23;64.73
69879;BME280;57161;43.136;24.706;2023-02-12T02:02:30;100259.28;;;-2.14;64.75
69879;BME280;57161;43.136;24.706;2023-02-12T02:05:02;100238.84;;;-2.09;64.37
69879;BME280;57161;43.136;24.706;2023-02-12T02:07:28;100254.16;;;-1.83;64.07
69879;BME280;57161;43.136;24.706;2023-02-12T02:09:55;100225.63;;;-1.98;63.31
69879;BME280;57161;43.136;24.706;2023-02-12T02:12:21;100262.19;;;-1.75;63.30
69879;BME280;57161;43.136;24.706;2023-02-12T02:15:06;100240.72;;;-1.77;62.88
69879;BME280;57161;43.136;24.706;2023-02-12T02:18:00;100245.09;;;-1.67;62.89
69879;BME280;57161;43.136;24.706;2023-02-12T02:31:46;100263.50;;;-1.26;62.41
69879;BME280;57161;43.136;24.706;2023-02-12T02:39:47;100236.06;;;-1.26;62.11
69879;BME280;57161;43.136;24.706;2023-02-12T02:42:19;100257.59;;;-1.11;62.02
69879;BME280;57161;43.136;24.706;2023-02-12T02:45:05;100257.91;;;-1.09;61.78
69879;BME280;57161;43.136;24.706;2023-02-12T02:47:43;100243.75;;;-1.21;61.29
69879;BME280;57161;43.136;24.706;2023-02-12T02:50:15;100248.16;;;-1.10;61.29
69879;BME280;57161;43.136;24.706;2023-02-12T02:52:56;100245.72;;;-1.08;61.13
69879;BME280;57161;43.136;24.706;2023-02-12T02:55:26;100244.41;;;-1.04;61.14
69879;BME280;57161;43.136;24.706;2023-02-12T02:58:01;100258.44;;;-1.02;61.71
69879;BME280;57161;43.136;24.706;2023-02-12T03:03:28;100246.38;;;-0.79;60.61
69879;BME280;57161;43.136;24.706;2023-02-12T03:06:02;100243.41;;;-0.72;60.38
69879;BME280;57161;43.136;24.706;2023-02-12T03:08:33;100241.44;;;-0.71;60.36
69879;BME280;57161;43.136;24.706;2023-02-12T03:11:06;100235.94;;;-0.71;60.73
69879;BME280;57161;43.136;24.706;2023-02-12T03:13:58;100232.88;;;-0.73;60.26
69879;BME280;57161;43.136;24.706;2023-02-12T03:16:31;100237.91;;;-0.59;60.38
69879;BME280;57161;43.136;24.706;2023-02-12T03:21:31;100196.25;;;-0.92;60.73
69879;BME280;57161;43.136;24.706;2023-02-12T03:24:04;100239.56;;;-0.62;60.33
69879;BME280;57161;43.136;24.706;2023-02-12T03:27:20;100239.75;;;-0.56;59.82
69879;BME280;57161;43.136;24.706;2023-02-12T03:29:48;100248.63;;;-0.52;60.07
69879;BME280;57161;43.136;24.706;2023-02-12T03:32:32;100248.84;;;-0.46;59.84
69879;BME280;57161;43.136;24.706;2023-02-12T03:37:41;100249.22;;;-0.22;60.17
69879;BME280;57161;43.136;24.706;2023-02-12T03:40:39;100253.72;;;-0.16;59.10
69879;BME280;57161;43.136;24.706;2023-02-12T03:43:26;100263.31;;;0.02;59.22
69879;BME280;57161;43.136;24.706;2023-02-12T03:46:01;100253.94;;;0.65;56.30
69879;BME280;57161;43.136;24.706;2023-02-12T03:53:33;100219.94;;;1.30;53.74
69879;BME280;57161;43.136;24.706;2023-02-12T03:56:06;100254.63;;;1.67;52.82
69879;BME280;57161;43.136;24.706;2023-02-12T03:58:33;100246.34;;;1.76;52.23
69879;BME280;57161;43.136;24.706;2023-02-12T04:01:00;100216.19;;;1.73;52.09
69879;BME280;57161;43.136;24.706;2023-02-12T04:03:28;100251.41;;;2.05;51.95
69879;BME280;57161;43.136;24.706;2023-02-12T04:05:54;100222.00;;;1.93;52.10
69879;BME280;57161;43.136;24.706;2023-02-12T04:08:19;100201.03;;;1.77;52.41
69879;BME280;57161;43.136;24.706;2023-02-12T04:11:16;100234.41;;;2.07;52.27
69879;BME280;57161;43.136;24.706;2023-02-12T04:14:00;100235.81;;;2.12;52.24
69879;BME280;57161;43.136;24.706;2023-02-12T04:16:51;100229.50;;;2.11;51.64
69879;BME280;57161;43.136;24.706;2023-02-12T04:19:29;100249.69;;;2.26;51.43
69879;BME280;57161;43.136;24.706;2023-02-12T04:22:10;100259.38;;;2.31;51.24
69879;BME280;57161;43.136;24.706;2023-02-12T04:25:03;100249.69;;;2.35;50.89
69879;BME280;57161;43.136;24.706;2023-02-12T04:27:47;100248.31;;;2.40;51.48
69879;BME280;57161;43.136;24.706;2023-02-12T04:30:23;100239.44;;;2.45;51.66
69879;BME280;57161;43.136;24.706;2023-02-12T04:32:53;100226.72;;;2.38;51.75
69879;BME280;57161;43.136;24.706;2023-02-12T04:35:27;100231.75;;;2.40;50.94
69879;BME280;57161;43.136;24.706;2023-02-12T04:38:18;100235.69;;;2.57;50.88
69879;BME280;57161;43.136;24.706;2023-02-12T04:40:47;100227.28;;;2.52;50.78
69879;BME280;57161;43.136;24.706;2023-02-12T04:43:13;100244.56;;;2.70;50.92
69879;BME280;57161;43.136;24.706;2023-02-12T04:45:39;100215.66;;;2.48;51.52
69879;BME280;57161;43.136;24.706;2023-02-12T04:48:05;100184.59;;;2.29;51.68
69879;BME280;57161;43.136;24.706;2023-02-12T04:50:42;100232.81;;;2.61;51.77
69879;BME280;57161;43.136;24.706;2023-02-12T04:53:09;100257.59;;;2.70;51.40
69879;BME280;57161;43.136;24.706;2023-02-12T04:55:34;100248.72;;;2.57;51.27
69879;BME280;57161;43.136;24.706;2023-02-12T04:58:00;100258.19;;;2.74;51.14
69879;BME280;57161;43.136;24.706;2023-02-12T05:00:26;100243.19;;;2.66;51.20
69879;BME280;57161;43.136;24.706;2023-02-12T05:02:52;100247.97;;;2.65;51.40
69879;BME280;57161;43.136;24.706;2023-02-12T05:05:17;100258.97;;;2.75;50.68
69879;BME280;57161;43.136;24.706;2023-02-12T05:07:43;100262.81;;;2.77;52.14
69879;BME280;57161;43.136;24.706;2023-02-12T05:10:08;100281.78;;;2.84;50.83
69879;BME280;57161;43.136;24.706;2023-02-12T05:12:34;100286.53;;;2.93;50.03
69879;BME280;57161;43.136;24.706;2023-02-12T05:15:00;100277.97;;;2.82;51.36
69879;BME280;57161;43.136;24.706;2023-02-12T05:17:25;100291.72;;;2.91;50.92
69879;BME280;57161;43.136;24.706;2023-02-12T05:19:51;100246.91;;;2.63;50.51
69879;BME280;57161;43.136;24.706;2023-02-12T05:22:16;100292.19;;;2.98;51.35
69879;BME280;57161;43.136;24.706;2023-02-12T05:24:42;100295.41;;;2.97;51.15
69879;BME280;57161;43.136;24.706;2023-02-12T05:27:08;100296.34;;;2.94;51.77
69879;BME280;57161;43.136;24.706;2023-02-12T05:29:34;100299.41;;;2.87;52.28
69879;BME280;57161;43.136;24.706;2023-02-12T05:32:00;100272.91;;;2.71;52.13
69879;BME280;57161;43.136;24.706;2023-02-12T05:34:27;100236.81;;;2.41;52.56
69879;BME280;57161;43.136;24.706;2023-02-12T05:36:52;100272.66;;;2.51;52.43
69879;BME280;57161;43.136;24.706;2023-02-12T05:39:18;100305.09;;;2.74;52.31
69879;BME280;57161;43.136;24.706;2023-02-12T05:41:43;100315.53;;;2.79;51.84
69879;BME280;57161;43.136;24.706;2023-02-12T05:44:09;100325.78;;;2.88;51.61
69879;BME280;57161;43.136;24.706;2023-02-12T05:46:39;100300.66;;;2.86;51.03
69879;BME280;57161;43.136;24.706;2023-02-12T05:49:05;100327.63;;;2.91;51.37
69879;BME280;57161;43.136;24.706;2023-02-12T05:51:32;100312.63;;;2.83;51.06
69879;BME280;57161;43.136;24.706;2023-02-12T05:54:00;100284.72;;;2.71;50.56
69879;BME280;57161;43.136;24.706;2023-02-12T05:56:37;100354.72;;;3.11;50.79
69879;BME280;57161;43.136;24.706;2023-02-12T05:59:07;100359.16;;;3.17;50.68
69879;BME280;57161;43.136;24.706;2023-02-12T06:01:41;100316.59;;;2.82;50.91
69879;BME280;57161;43.136;24.706;2023-02-12T06:04:12;100368.84;;;3.04;51.56
69879;BME280;57161;43.136;24.706;2023-02-12T06:06:38;100366.06;;;3.13;50.52
69879;BME280;57161;43.136;24.706;2023-02-12T06:09:07;100361.50;;;3.00;51.10
69879;BME280;57161;43.136;24.706;2023-02-12T06:11:33;100369.00;;;3.09;51.18
69879;BME280;57161;43.136;24.706;2023-02-12T06:14:01;100370.66;;;3.16;50.42
69879;BME280;57161;43.136;24.706;2023-02-12T06:16:28;100368.94;;;3.27;50.34
69879;BME280;57161;43.136;24.706;2023-02-12T06:18:55;100367.72;;;3.19;50.71
69879;BME280;57161;43.136;24.706;2023-02-12T06:21:22;100359.31;;;3.14;50.94
69879;BME280;57161;43.136;24.706;2023-02-12T06:23:48;100368.66;;;3.25;50.71
69879;BME280;57161;43.136;24.706;2023-02-12T06:26:14;100368.78;;;3.31;50.79
69879;BME280;57161;43.136;24.706;2023-02-12T06:28:40;100366.97;;;3.19;51.33
69879;BME280;57161;43.136;24.706;2023-02-12T06:33:41;100354.88;;;3.16;51.19
69879;BME280;57161;43.136;24.706;2023-02-12T06:36:06;100351.81;;;3.05;51.22
69879;BME280;57161;43.136;24.706;2023-02-12T06:38:33;100373.44;;;3.16;52.03
69879;BME280;57161;43.136;24.706;2023-02-12T06:41:01;100377.53;;;3.29;51.50
69879;BME280;57161;43.136;24.706;2023-02-12T06:43:27;100375.97;;;3.38;51.30
69879;BME280;57161;43.136;24.706;2023-02-12T06:45:52;100362.97;;;3.20;50.97
69879;BME280;57161;43.136;24.706;2023-02-12T06:48:17;100338.47;;;3.04;51.44
69879;BME280;57161;43.136;24.706;2023-02-12T06:50:43;100388.25;;;3.37;52.12
69879;BME280;57161;43.136;24.706;2023-02-12T06:53:09;100392.63;;;3.52;51.31
69879;BME280;57161;43.136;24.706;2023-02-12T06:55:34;100399.22;;;3.55;50.88
69879;BME280;57161;43.136;24.706;2023-02-12T06:58:00;100412.31;;;3.45;51.04
69879;BME280;57161;43.136;24.706;2023-02-12T07:00:25;100404.50;;;3.44;50.68
69879;BME280;57161;43.136;24.706;2023-02-12T07:02:52;100400.88;;;3.19;51.70
69879;BME280;57161;43.136;24.706;2023-02-12T07:05:18;100409.50;;;3.12;52.91
69879;BME280;57161;43.136;24.706;2023-02-12T07:07:44;100403.81;;;3.07;52.55
69879;BME280;57161;43.136;24.706;2023-02-12T07:10:10;100415.78;;;3.13;52.57
69879;BME280;57161;43.136;24.706;2023-02-12T07:12:35;100427.59;;;3.13;53.32
69879;BME280;57161;43.136;24.706;2023-02-12T07:15:01;100414.81;;;3.25;51.92
69879;BME280;57161;43.136;24.706;2023-02-12T07:17:28;100441.53;;;3.28;52.40
69879;BME280;57161;43.136;24.706;2023-02-12T07:19:55;100438.31;;;3.29;52.70
69879;BME280;57161;43.136;24.706;2023-02-12T07:22:20;100405.03;;;3.15;52.49
69879;BME280;57161;43.136;24.706;2023-02-12T07:24:46;100412.38;;;3.27;52.12
69879;BME280;57161;43.136;24.706;2023-02-12T07:27:13;100444.22;;;3.55;51.51
69879;BME280;57161;43.136;24.706;2023-02-12T07:29:38;100396.56;;;3.27;51.43
69879;BME280;57161;43.136;24.706;2023-02-12T07:32:04;100437.50;;;3.47;51.93
69879;BME280;57161;43.136;24.706;2023-02-12T07:34:30;100422.50;;;3.30;51.94
69879;BME280;57161;43.136;24.706;2023-02-12T07:36:55;100373.09;;;3.23;51.49
69879;BME280;57161;43.136;24.706;2023-02-12T07:39:21;100419.59;;;3.76;50.84
69879;BME280;57161;43.136;24.706;2023-02-12T07:41:46;100439.16;;;3.96;50.76
69879;BME280;57161;43.136;24.706;2023-02-12T07:44:12;100392.44;;;3.65;50.49
69879;BME280;57161;43.136;24.706;2023-02-12T07:46:45;100440.00;;;4.11;50.55
69879;BME280;57161;43.136;24.706;2023-02-12T07:49:16;100444.84;;;4.26;49.76
69879;BME280;57161;43.136;24.706;2023-02-12T07:51:42;100430.09;;;4.43;49.78
69879;BME280;57161;43.136;24.706;2023-02-12T07:54:09;100428.91;;;4.59;48.92
69879;BME280;57161;43.136;24.706;2023-02-12T07:56:35;100426.75;;;4.78;48.96
69879;BME280;57161;43.136;24.706;2023-02-12T07:59:07;100441.13;;;5.06;48.38
69879;BME280;57161;43.136;24.706;2023-02-12T08:01:42;100444.78;;;5.27;47.87
69879;BME280;57161;43.136;24.706;2023-02-12T08:04:12;100441.25;;;5.26;47.42
69879;BME280;57161;43.136;24.706;2023-02-12T08:06:43;100433.06;;;4.78;48.03
69879;BME280;57161;43.136;24.706;2023-02-12T08:09:11;100443.13;;;4.91;48.51
69879;BME280;57161;43.136;24.706;2023-02-12T08:11:37;100441.75;;;4.86;48.22
69879;BME280;57161;43.136;24.706;2023-02-12T08:14:04;100440.97;;;4.71;48.60
69879;BME280;57161;43.136;24.706;2023-02-12T08:16:30;100403.34;;;4.64;49.44
69879;BME280;57161;43.136;24.706;2023-02-12T08:18:57;100445.16;;;5.05;48.91
69879;BME280;57161;43.136;24.706;2023-02-12T08:21:24;100427.44;;;4.73;49.25
69879;BME280;57161;43.136;24.706;2023-02-12T08:23:50;100445.78;;;4.85;49.26
69879;BME280;57161;43.136;24.706;2023-02-12T08:28:53;100451.44;;;4.67;49.87
69879;BME280;57161;43.136;24.706;2023-02-12T08:31:22;100454.66;;;4.50;50.11
69879;BME280;57161;43.136;24.706;2023-02-12T08:33:49;100469.81;;;4.40;50.41
69879;BME280;57161;43.136;24.706;2023-02-12T08:36:17;100442.97;;;4.22;50.38
69879;BME280;57161;43.136;24.706;2023-02-12T08:38:44;100460.41;;;4.38;51.02
69879;BME280;57161;43.136;24.706;2023-02-12T08:41:30;100470.91;;;4.58;50.86
69879;BME280;57161;43.136;24.706;2023-02-12T08:43:57;100492.16;;;4.75;50.59
69879;BME280;57161;43.136;24.706;2023-02-12T08:46:28;100491.69;;;4.77;50.21
69879;BME280;57161;43.136;24.706;2023-02-12T08:48:57;100488.84;;;4.86;50.31
69879;BME280;57161;43.136;24.706;2023-02-12T08:51:24;100511.34;;;5.18;50.19
69879;BME280;57161;43.136;24.706;2023-02-12T08:53:53;100508.31;;;5.16;49.17
69879;BME280;57161;43.136;24.706;2023-02-12T08:56:20;100509.44;;;5.09;49.32
69879;BME280;57161;43.136;24.706;2023-02-12T08:58:46;100510.66;;;4.93;49.42
69879;BME280;57161;43.136;24.706;2023-02-12T09:01:22;100510.75;;;4.99;50.13
69879;BME280;57161;43.136;24.706;2023-02-12T09:03:48;100507.84;;;4.78;50.54
69879;BME280;57161;43.136;24.706;2023-02-12T09:06:16;100506.06;;;4.66;50.68
69879;BME280;57161;43.136;24.706;2023-02-12T09:08:43;100510.44;;;4.58;51.32
69879;BME280;57161;43.136;24.706;2023-02-12T09:11:14;100503.38;;;4.57;50.67
69879;BME280;57161;43.136;24.706;2023-02-12T09:13:44;100510.28;;;4.52;50.77
69879;BME280;57161;43.136;24.706;2023-02-12T09:16:10;100515.69;;;4.56;51.60
69879;BME280;57161;43.136;24.706;2023-02-12T09:18:36;100521.72;;;4.69;51.32
69879;BME280;57161;43.136;24.706;2023-02-12T09:21:03;100503.75;;;4.65;51.64
69879;BME280;57161;43.136;24.706;2023-02-12T09:23:30;100462.47;;;4.52;50.70
69879;BME280;57161;43.136;24.706;2023-02-12T09:25:56;100503.75;;;4.89;50.68
69879;BME280;57161;43.136;24.706;2023-02-12T09:28:22;100508.84;;;4.90;50.05
69879;BME280;57161;43.136;24.706;2023-02-12T09:30:47;100496.00;;;4.78;50.43
69879;BME280;57161;43.136;24.706;2023-02-12T09:33:13;100522.59;;;4.99;51.18
69879;BME280;57161;43.136;24.706;2023-02-12T09:35:39;100495.13;;;4.87;50.67
69879;BME280;57161;43.136;24.706;2023-02-12T09:38:05;100512.50;;;5.11;50.41
69879;BME280;57161;43.136;24.706;2023-02-12T09:40:56;100519.59;;;5.27;50.15
69879;BME280;57161;43.136;24.706;2023-02-12T09:43:33;100521.06;;;5.66;49.40
69879;BME280;57161;43.136;24.706;2023-02-12T09:51:21;100506.63;;;5.77;48.51
69879;BME280;57161;43.136;24.706;2023-02-12T09:53:48;100510.94;;;5.78;48.28
69879;BME280;57161;43.136;24.706;2023-02-12T09:56:17;100505.09;;;5.76;48.37
69879;BME280;57161;43.136;24.706;2023-02-12T09:58:51;100545.84;;;5.99;48.24
69879;BME280;57161;43.136;24.706;2023-02-12T10:01:20;100544.88;;;6.17;48.19
69879;BME280;57161;43.136;24.706;2023-02-12T10:03:50;100551.31;;;6.44;47.83
69879;BME280;57161;43.136;24.706;2023-02-12T10:06:23;100556.28;;;6.54;47.82
69879;BME280;57161;43.136;24.706;2023-02-12T10:09:06;100552.53;;;6.22;48.65
69879;BME280;57161;43.136;24.706;2023-02-12T10:14:49;100562.94;;;5.39;49.67
69879;BME280;57161;43.136;24.706;2023-02-12T10:27:59;100565.13;;;5.50;50.46
69879;BME280;57161;43.136;24.706;2023-02-12T10:30:39;100582.19;;;5.72;48.79
69879;BME280;57161;43.136;24.706;2023-02-12T10:33:13;100564.66;;;5.66;49.71
69879;BME280;57161;43.136;24.706;2023-02-12T10:35:46;100575.47;;;5.79;49.93
69879;BME280;57161;43.136;24.706;2023-02-12T10:38:18;100564.78;;;5.86;50.62
69879;BME280;57161;43.136;24.706;2023-02-12T10:40:44;100575.78;;;5.95;50.00
69879;BME280;57161;43.136;24.706;2023-02-12T10:43:11;100556.63;;;5.68;50.32
69879;BME280;57161;43.136;24.706;2023-02-12T10:45:40;100549.84;;;5.39;49.90
69879;BME280;57161;43.136;24.706;2023-02-12T10:48:16;100579.75;;;5.50;50.20
69879;BME280;57161;43.136;24.706;2023-02-12T10:53:23;100579.47;;;5.63;51.00
69879;BME280;57161;43.136;24.706;2023-02-12T10:55:49;100585.34;;;5.80;50.25
69879;BME280;57161;43.136;24.706;2023-02-12T10:58:28;100586.09;;;5.80;49.78
69879;BME280;57161;43.136;24.706;2023-02-12T11:00:58;100566.47;;;5.69;49.89
69879;BME280;57161;43.136;24.706;2023-02-12T11:03:31;100582.34;;;5.68;50.57
69879;BME280;57161;43.136;24.706;2023-02-12T11:06:16;100584.13;;;5.95;50.94
69879;BME280;57161;43.136;24.706;2023-02-12T11:08:42;100591.59;;;6.04;51.06
69879;BME280;57161;43.136;24.706;2023-02-12T11:13:44;100589.06;;;5.77;51.16
69879;BME280;57161;43.136;24.706;2023-02-12T11:16:10;100596.06;;;5.87;51.42
69879;BME280;57161;43.136;24.706;2023-02-12T11:18:36;100586.78;;;5.75;51.52
69879;BME280;57161;43.136;24.706;2023-02-12T11:21:08;100582.06;;;5.66;51.39
69879;BME280;57161;43.136;24.706;2023-02-12T11:23:40;100592.78;;;5.73;51.81
69879;BME280;57161;43.136;24.706;2023-02-12T11:29:02;100588.31;;;5.76;51.47
69879;BME280;57161;43.136;24.706;2023-02-12T11:31:41;100585.22;;;5.59;52.06
69879;BME280;57161;43.136;24.706;2023-02-12T11:34:16;100593.84;;;5.76;52.03
69879;BME280;57161;43.136;24.706;2023-02-12T11:36:49;100590.25;;;5.99;51.83
69879;BME280;57161;43.136;24.706;2023-02-12T11:39:37;100598.34;;;6.32;50.55
69879;BME280;57161;43.136;24.706;2023-02-12T11:42:24;100591.84;;;6.36;50.54
69879;BME280;57161;43.136;24.706;2023-02-12T11:44:57;100582.44;;;6.33;49.16
69879;BME280;57161;43.136;24.706;2023-02-12T11:47:33;100592.25;;;6.63;48.99
69879;BME280;57161;43.136;24.706;2023-02-12T11:52:48;100599.66;;;7.28;48.08
69879;BME280;57161;43.136;24.706;2023-02-12T11:55:22;100606.19;;;7.45;47.63
69879;BME280;57161;43.136;24.706;2023-02-12T11:57:50;100595.31;;;7.47;47.58
69879;BME280;57161;43.136;24.706;2023-02-12T12:00:24;100602.31;;;7.37;47.90
69879;BME280;57161;43.136;24.706;2023-02-12T12:02:58;100587.28;;;7.08;47.95
69879;BME280;57161;43.136;24.706;2023-02-12T12:05:31;100584.94;;;7.01;47.88
69879;BME280;57161;43.136;24.706;2023-02-12T12:08:02;100593.81;;;7.46;47.86
69879;BME280;57161;43.136;24.706;2023-02-12T12:10:46;100604.47;;;7.73;46.71
69879;BME280;57161;43.136;24.706;2023-02-12T12:13:18;100598.78;;;7.62;46.80
69879;BME280;57161;43.136;24.706;2023-02-12T12:15:50;100602.34;;;7.89;46.48
69879;BME280;57161;43.136;24.706;2023-02-12T12:18:47;100598.06;;;8.19;46.09
69879;BME280;57161;43.136;24.706;2023-02-12T12:22:08;100591.31;;;8.00;46.45
69879;BME280;57161;43.136;24.706;2023-02-12T12:33:25;100608.38;;;7.61;45.20
69879;BME280;57161;43.136;24.706;2023-02-12T12:41:08;100573.38;;;7.49;46.42
69879;BME280;57161;43.136;24.706;2023-02-12T12:43:48;100612.09;;;7.78;45.82
69879;BME280;57161;43.136;24.706;2023-02-12T12:46:25;100605.66;;;7.93;45.82
69879;BME280;57161;43.136;24.706;2023-02-12T12:51:51;100599.59;;;7.94;45.51
69879;BME280;57161;43.136;24.706;2023-02-12T12:54:38;100601.78;;;8.10;45.87
69879;BME280;57161;43.136;24.706;2023-02-12T12:57:41;100588.97;;;7.93;45.18
69879;BME280;57161;43.136;24.706;2023-02-12T13:06:18;100608.81;;;7.54;46.26
69879;BME280;57161;43.136;24.706;2023-02-12T13:14:53;100616.97;;;7.17;46.53
69879;BME280;57161;43.136;24.706;2023-02-12T13:17:42;100608.97;;;6.84;47.64
69879;BME280;57161;43.136;24.706;2023-02-12T13:20:26;100626.00;;;6.56;48.49
69879;BME280;57161;43.136;24.706;2023-02-12T13:25:27;100639.34;;;6.23;48.84
69879;BME280;57161;43.136;24.706;2023-02-12T13:27:58;100651.09;;;6.18;49.03
69879;BME280;57161;43.136;24.706;2023-02-12T13:30:28;100660.66;;;6.17;49.34
69879;BME280;57161;43.136;24.706;2023-02-12T13:33:14;100660.97;;;6.19;49.53
69879;BME280;57161;43.136;24.706;2023-02-12T13:35:45;100669.66;;;6.12;49.65
69879;BME280;57161;43.136;24.706;2023-02-12T13:38:23;100670.16;;;6.10;50.25
69879;BME280;57161;43.136;24.706;2023-02-12T13:40:53;100668.31;;;6.07;50.05
69879;BME280;57161;43.136;24.706;2023-02-12T13:49:37;100658.44;;;5.53;50.96
69879;BME280;57161;43.136;24.706;2023-02-12T13:52:12;100688.97;;;5.67;50.37
69879;BME280;57161;43.136;24.706;2023-02-12T13:57:25;100690.88;;;5.61;51.80
69879;BME280;57161;43.136;24.706;2023-02-12T13:59:52;100699.97;;;5.62;51.50
69879;BME280;57161;43.136;24.706;2023-02-12T14:05:04;100695.72;;;5.52;51.77
69879;BME280;57161;43.136;24.706;2023-02-12T14:08:03;100713.31;;;5.49;52.03
69879;BME280;57161;43.136;24.706;2023-02-12T14:10:40;100721.50;;;5.43;52.33
69879;BME280;57161;43.136;24.706;2023-02-12T14:13:30;100724.75;;;5.41;52.68
69879;BME280;57161;43.136;24.706;2023-02-12T14:16:18;100655.84;;;5.01;52.59
69879;BME280;57161;43.136;24.706;2023-02-12T14:18:44;100713.06;;;5.13;53.04
69879;BME280;57161;43.136;24.706;2023-02-12T14:23:35;100752.69;;;5.29;53.38
69879;BME280;57161;43.136;24.706;2023-02-12T14:26:13;100736.81;;;5.05;53.45
69879;BME280;57161;43.136;24.706;2023-02-12T14:33:45;100767.41;;;5.11;55.15
69879;BME280;57161;43.136;24.706;2023-02-12T14:36:35;100758.22;;;4.96;54.34
69879;BME280;57161;43.136;24.706;2023-02-12T14:41:44;100773.63;;;4.97;56.26
69879;BME280;57161;43.136;24.706;2023-02-12T14:47:03;100792.97;;;5.06;55.70
69879;BME280;57161;43.136;24.706;2023-02-12T14:49:38;100733.13;;;4.57;55.91
69879;BME280;57161;43.136;24.706;2023-02-12T14:54:54;100781.72;;;5.09;56.45
69879;BME280;57161;43.136;24.706;2023-02-12T14:57:34;100795.06;;;5.20;56.85
69879;BME280;57161;43.136;24.706;2023-02-12T15:02:43;100768.59;;;5.19;56.18
69879;BME280;57161;43.136;24.706;2023-02-12T15:05:21;100800.06;;;5.40;57.20
69879;BME280;57161;43.136;24.706;2023-02-12T15:07:51;100792.81;;;5.42;56.70
69879;BME280;57161;43.136;24.706;2023-02-12T15:10:28;100758.44;;;5.16;55.24
69879;BME280;57161;43.136;24.706;2023-02-12T15:16:01;100803.16;;;5.33;54.92
69879;BME280;57161;43.136;24.706;2023-02-12T15:21:19;100799.63;;;5.32;56.65